createdAt,value
2023-05-21T00:01:16.038Z,14.98
2023-05-21T00:03:46.129Z,15.05
2023-05-21T00:06:15.541Z,14.85
2023-05-21T00:08:44.536Z,14.83
2023-05-21T00:11:12.070Z,14.92
2023-05-21T00:13:39.606Z,15.02
2023-05-21T00:16:07.964Z,14.90
2023-05-21T00:18:35.588Z,14.69
2023-05-21T00:21:03.107Z,14.69
2023-05-21T00:23:32.598Z,14.68
2023-05-21T00:26:01.498Z,14.75
2023-05-21T00:28:29.068Z,14.59
2023-05-21T00:30:56.585Z,14.52
2023-05-21T00:33:26.431Z,14.55
2023-05-21T00:35:54.065Z,14.37
2023-05-21T00:38:22.130Z,14.32
2023-05-21T00:40:49.896Z,14.10
2023-05-21T00:43:18.850Z,14.13
2023-05-21T00:45:47.438Z,14.20
2023-05-21T00:48:15.960Z,14.24
2023-05-21T00:50:44.860Z,14.16
2023-05-21T00:53:12.537Z,14.19
2023-05-21T00:55:40.600Z,14.04
2023-05-21T00:58:08.965Z,13.94
2023-05-21T01:00:40.470Z,13.94
2023-05-21T01:03:08.345Z,14.00
2023-05-21T01:05:36.905Z,14.09
2023-05-21T01:08:05.023Z,14.13
2023-05-21T01:10:32.611Z,14.04
2023-05-21T01:13:00.702Z,13.99
2023-05-21T01:15:28.391Z,13.96
2023-05-21T01:17:57.418Z,13.95
2023-05-21T01:20:25.422Z,13.84
2023-05-21T01:22:55.253Z,13.87
2023-05-21T01:25:25.644Z,13.70
2023-05-21T01:27:53.474Z,13.60
2023-05-21T01:30:22.213Z,13.68
2023-05-21T01:32:56.667Z,13.74
2023-05-21T01:35:27.876Z,13.74
2023-05-21T01:38:00.974Z,13.65
2023-05-21T01:40:32.612Z,13.69
2023-05-21T01:43:00.872Z,13.74
2023-05-21T01:45:31.397Z,13.78
2023-05-21T01:47:59.301Z,13.63
2023-05-21T01:50:27.496Z,13.66
2023-05-21T01:52:58.567Z,13.60
2023-05-21T01:55:26.172Z,13.55
2023-05-21T01:57:54.389Z,13.48
2023-05-21T02:00:22.287Z,13.47
2023-05-21T02:02:50.282Z,13.39
2023-05-21T02:05:18.213Z,13.45
2023-05-21T02:07:46.257Z,13.44
2023-05-21T02:10:15.920Z,13.35
2023-05-21T02:12:44.103Z,13.35
2023-05-21T02:15:11.684Z,13.20
2023-05-21T02:17:39.403Z,13.31
2023-05-21T02:20:12.190Z,13.28
2023-05-21T02:22:40.489Z,13.40
2023-05-21T02:25:09.750Z,13.39
2023-05-21T02:27:39.580Z,13.43
2023-05-21T02:30:09.090Z,13.42
2023-05-21T02:32:37.054Z,13.37
2023-05-21T02:35:05.486Z,13.40
2023-05-21T02:37:34.248Z,13.17
2023-05-21T02:40:03.600Z,13.12
2023-05-21T02:42:31.316Z,13.08
2023-05-21T02:45:00.418Z,13.23
2023-05-21T02:47:28.024Z,13.17
2023-05-21T02:49:55.822Z,13.18
2023-05-21T02:52:24.489Z,13.26
2023-05-21T02:54:52.823Z,13.22
2023-05-21T02:57:20.641Z,13.34
2023-05-21T02:59:48.234Z,13.31
2023-05-21T03:02:17.250Z,13.22
2023-05-21T03:04:46.856Z,13.23
2023-05-21T03:07:15.179Z,13.29
2023-05-21T03:09:43.234Z,13.26
2023-05-21T03:12:11.338Z,13.25
2023-05-21T03:14:39.143Z,13.16
2023-05-21T03:17:07.710Z,13.09
2023-05-21T03:19:36.804Z,13.08
2023-05-21T03:22:05.969Z,12.86
2023-05-21T03:24:38.118Z,13.08
2023-05-21T03:27:07.249Z,13.00
2023-05-21T03:29:36.139Z,13.02
2023-05-21T03:32:04.301Z,13.03
2023-05-21T03:34:35.592Z,13.03
2023-05-21T03:37:05.622Z,13.02
2023-05-21T03:39:34.441Z,12.91
2023-05-21T03:42:02.090Z,12.99
2023-05-21T03:44:38.416Z,13.09
2023-05-21T03:47:27.093Z,13.10
2023-05-21T03:49:54.959Z,13.07
2023-05-21T03:52:23.958Z,13.11
2023-05-21T03:54:51.822Z,13.07
2023-05-21T03:57:19.696Z,12.97
2023-05-21T03:59:48.612Z,12.91
2023-05-21T04:02:16.644Z,12.83
2023-05-21T04:04:45.381Z,13.08
2023-05-21T04:07:15.327Z,12.97
2023-05-21T04:09:44.228Z,12.94
2023-05-21T04:12:11.818Z,12.96
2023-05-21T04:14:39.393Z,13.03
2023-05-21T04:17:07.017Z,12.94
2023-05-21T04:19:34.774Z,12.98
2023-05-21T04:22:04.390Z,12.87
2023-05-21T04:24:32.369Z,12.99
2023-05-21T04:27:11.235Z,12.82
2023-05-21T04:29:42.762Z,12.86
2023-05-21T04:32:15.005Z,12.81
2023-05-21T04:34:42.942Z,12.91
2023-05-21T04:37:10.615Z,12.99
2023-05-21T04:39:38.394Z,12.99
2023-05-21T04:42:06.923Z,13.12
2023-05-21T04:44:35.813Z,12.99
2023-05-21T04:47:04.637Z,12.97
2023-05-21T04:49:34.861Z,12.99
2023-05-21T04:52:02.621Z,12.86
2023-05-21T04:54:30.177Z,12.92
2023-05-21T04:56:58.135Z,13.06
2023-05-21T04:59:25.665Z,12.88
2023-05-21T05:01:54.826Z,12.79
2023-05-21T05:04:22.934Z,12.66
2023-05-21T05:06:51.854Z,12.69
2023-05-21T05:09:21.493Z,12.68
2023-05-21T05:11:49.017Z,12.75
2023-05-21T05:14:16.608Z,12.91
2023-05-21T05:16:48.106Z,13.06
2023-05-21T05:19:18.200Z,12.99
2023-05-21T05:21:45.917Z,13.11
2023-05-21T05:24:13.555Z,13.31
2023-05-21T05:26:41.229Z,13.42
2023-05-21T05:29:08.788Z,13.48
2023-05-21T05:31:37.338Z,13.58
2023-05-21T05:34:05.318Z,13.69
2023-05-21T05:36:34.626Z,13.80
2023-05-21T05:39:03.834Z,13.90
2023-05-21T05:41:31.495Z,13.86
2023-05-21T05:43:59.044Z,13.90
2023-05-21T05:46:30.337Z,14.02
2023-05-21T05:48:58.479Z,14.18
2023-05-21T05:51:26.014Z,14.24
2023-05-21T05:53:54.897Z,14.26
2023-05-21T05:56:22.893Z,14.23
2023-05-21T05:58:50.596Z,14.27
2023-05-21T06:01:19.537Z,14.39
2023-05-21T06:03:47.362Z,14.45
2023-05-21T06:06:17.977Z,14.51
2023-05-21T06:08:46.276Z,14.67
2023-05-21T06:11:17.191Z,14.76
2023-05-21T06:13:45.161Z,14.88
2023-05-21T06:16:18.023Z,14.98
2023-05-21T06:18:46.006Z,15.12
2023-05-21T06:21:13.701Z,15.25
2023-05-21T06:23:41.696Z,15.41
2023-05-21T06:26:10.106Z,15.53
2023-05-21T06:28:39.084Z,15.65
2023-05-21T06:31:07.436Z,15.77
2023-05-21T06:33:37.133Z,15.94
2023-05-21T06:36:05.100Z,16.06
2023-05-21T06:38:33.074Z,16.19
2023-05-21T06:41:01.975Z,16.30
2023-05-21T06:43:47.933Z,16.46
2023-05-21T06:46:35.537Z,16.62
2023-05-21T06:49:07.172Z,16.73
2023-05-21T06:51:35.237Z,16.86
2023-05-21T06:54:05.038Z,17.02
2023-05-21T06:56:34.494Z,17.22
2023-05-21T06:59:03.413Z,17.37
2023-05-21T07:01:32.361Z,17.55
2023-05-21T07:04:00.623Z,17.86
2023-05-21T07:06:28.184Z,18.12
2023-05-21T07:08:56.672Z,18.33
2023-05-21T07:11:28.638Z,18.47
2023-05-21T07:14:00.324Z,18.58
2023-05-21T07:16:31.441Z,18.78
2023-05-21T07:18:59.804Z,18.81
2023-05-21T07:21:27.606Z,18.93
2023-05-21T07:23:56.640Z,19.02
2023-05-21T07:26:26.023Z,19.15
2023-05-21T07:28:53.833Z,19.31
2023-05-21T07:31:21.447Z,19.54
2023-05-21T07:33:53.056Z,19.69
2023-05-21T07:36:24.790Z,20.06
2023-05-21T07:38:52.963Z,20.26
2023-05-21T07:41:21.991Z,20.80
2023-05-21T07:43:50.994Z,21.05
2023-05-21T07:46:18.830Z,21.27
2023-05-21T07:48:49.974Z,21.59
2023-05-21T07:51:18.897Z,21.79
2023-05-21T07:53:46.755Z,21.99
2023-05-21T07:56:16.631Z,22.20
2023-05-21T07:58:45.821Z,22.68
2023-05-21T08:01:14.861Z,22.66
2023-05-21T08:03:43.319Z,22.75
2023-05-21T08:06:11.087Z,22.91
2023-05-21T08:08:40.080Z,23.03
2023-05-21T08:11:07.606Z,23.00
2023-05-21T08:13:35.909Z,23.00
2023-05-21T08:16:05.940Z,23.18
2023-05-21T08:18:33.697Z,23.34
2023-05-21T08:21:01.885Z,23.61
2023-05-21T08:23:29.905Z,23.75
2023-05-21T08:26:01.584Z,23.83
2023-05-21T08:28:31.321Z,23.91
2023-05-21T08:31:01.319Z,23.85
2023-05-21T08:33:29.100Z,23.94
2023-05-21T08:35:56.682Z,23.81
2023-05-21T08:38:31.682Z,23.99
2023-05-21T08:41:10.168Z,23.98
2023-05-21T08:43:38.846Z,24.02
2023-05-21T08:46:07.870Z,24.08
2023-05-21T08:48:38.362Z,23.92
2023-05-21T08:51:07.144Z,23.90
2023-05-21T08:53:40.472Z,23.99
2023-05-21T08:56:13.096Z,24.11
2023-05-21T08:58:49.924Z,24.18
2023-05-21T09:01:22.388Z,24.17
2023-05-21T09:04:04.944Z,24.18
2023-05-21T09:06:36.447Z,24.41
2023-05-21T09:09:07.834Z,24.66
2023-05-21T09:11:46.340Z,24.86
2023-05-21T09:14:14.680Z,24.90
2023-05-21T09:17:03.454Z,25.21
2023-05-21T09:19:32.365Z,25.29
2023-05-21T09:22:02.822Z,25.47
2023-05-21T09:24:33.744Z,25.46
2023-05-21T09:27:07.522Z,25.57
2023-05-21T09:29:35.296Z,25.68
2023-05-21T09:32:07.414Z,25.67
2023-05-21T09:34:37.251Z,25.82
2023-05-21T09:37:16.510Z,25.81
2023-05-21T09:39:54.112Z,25.75
2023-05-21T09:42:23.305Z,25.74
2023-05-21T09:44:51.406Z,25.72
2023-05-21T09:47:22.326Z,25.79
2023-05-21T09:49:50.189Z,25.93
2023-05-21T09:52:24.966Z,25.84
2023-05-21T09:54:53.100Z,25.92
2023-05-21T09:57:26.196Z,26.13
2023-05-21T09:59:54.055Z,26.18
2023-05-21T10:02:23.096Z,26.28
2023-05-21T10:04:52.845Z,26.41
2023-05-21T10:07:26.135Z,26.54
2023-05-21T10:09:56.037Z,26.81
2023-05-21T10:12:24.257Z,26.85
2023-05-21T10:15:00.301Z,26.63
2023-05-21T10:17:28.717Z,26.83
2023-05-21T10:19:57.944Z,26.79
2023-05-21T10:22:26.027Z,26.79
2023-05-21T10:24:53.924Z,26.75
2023-05-21T10:27:22.618Z,27.04
2023-05-21T10:29:50.995Z,26.93
2023-05-21T10:32:22.500Z,27.07
2023-05-21T10:34:50.702Z,27.15
2023-05-21T10:37:18.568Z,27.03
2023-05-21T10:39:46.872Z,27.23
2023-05-21T10:42:21.106Z,27.30
2023-05-21T10:45:02.833Z,27.33
2023-05-21T10:47:45.116Z,27.48
2023-05-21T10:50:27.988Z,27.49
2023-05-21T10:53:04.818Z,27.36
2023-05-21T10:55:43.912Z,27.70
2023-05-21T10:58:36.206Z,27.86
2023-05-21T11:01:03.937Z,27.58
2023-05-21T11:03:35.029Z,27.66
2023-05-21T11:06:06.429Z,27.69
2023-05-21T11:08:36.118Z,27.48
2023-05-21T11:11:04.829Z,27.66
2023-05-21T11:13:48.699Z,27.64
2023-05-21T11:16:16.446Z,27.67
2023-05-21T11:19:04.269Z,27.84
2023-05-21T11:21:32.608Z,28.04
2023-05-21T11:24:03.921Z,27.95
2023-05-21T11:27:02.220Z,27.85
2023-05-21T11:29:34.361Z,27.82
2023-05-21T11:32:02.821Z,27.97
2023-05-21T11:34:39.405Z,27.94
2023-05-21T11:37:28.853Z,28.08
2023-05-21T11:39:57.249Z,27.93
2023-05-21T11:42:32.008Z,27.68
2023-05-21T11:45:00.394Z,27.58
2023-05-21T11:47:28.953Z,27.55
2023-05-21T11:49:59.859Z,27.84
2023-05-21T11:52:29.450Z,27.72
2023-05-21T11:54:58.276Z,27.68
2023-05-21T11:57:30.859Z,27.86
2023-05-21T11:59:59.563Z,27.91
2023-05-21T12:02:29.072Z,28.02
2023-05-21T12:05:00.541Z,28.05
2023-05-21T12:07:29.953Z,28.10
2023-05-21T12:09:57.810Z,28.15
2023-05-21T12:12:30.795Z,28.33
2023-05-21T12:15:03.929Z,28.41
2023-05-21T12:17:32.080Z,28.27
2023-05-21T12:20:02.095Z,28.19
2023-05-21T12:22:29.890Z,28.32
2023-05-21T12:25:00.964Z,28.22
2023-05-21T12:27:28.684Z,28.40
2023-05-21T12:29:56.555Z,28.51
2023-05-21T12:32:24.073Z,28.56
2023-05-21T12:34:54.497Z,28.74
2023-05-21T12:37:25.323Z,28.79
2023-05-21T12:39:54.239Z,28.53
2023-05-21T12:42:26.095Z,28.66
2023-05-21T12:44:54.337Z,28.31
2023-05-21T12:47:24.766Z,27.95
2023-05-21T12:49:55.604Z,27.58
2023-05-21T12:52:25.435Z,27.76
2023-05-21T12:54:54.270Z,28.06
2023-05-21T12:57:24.176Z,28.09
2023-05-21T12:59:52.851Z,28.12
2023-05-21T13:02:22.470Z,28.02
2023-05-21T13:04:54.852Z,27.60
2023-05-21T13:07:23.851Z,27.48
2023-05-21T13:09:53.230Z,27.57
2023-05-21T13:12:22.370Z,27.70
2023-05-21T13:14:50.841Z,27.74
2023-05-21T13:17:18.520Z,27.69
2023-05-21T13:20:06.643Z,27.71
2023-05-21T13:22:36.380Z,27.94
2023-05-21T13:25:04.145Z,28.11
2023-05-21T13:27:31.670Z,27.98
2023-05-21T13:29:59.336Z,28.12
2023-05-21T13:32:27.007Z,28.20
2023-05-21T13:34:54.649Z,28.28
2023-05-21T13:37:22.182Z,28.17
2023-05-21T13:39:51.050Z,28.34
2023-05-21T13:42:19.606Z,28.36
2023-05-21T13:44:47.526Z,28.22
2023-05-21T13:47:15.105Z,28.10
2023-05-21T13:49:43.297Z,28.25
2023-05-21T13:52:11.076Z,28.26
2023-05-21T13:54:38.620Z,28.09
2023-05-21T13:57:07.609Z,28.18
2023-05-21T13:59:36.228Z,28.18
2023-05-21T14:02:03.976Z,28.27
2023-05-21T14:04:31.589Z,28.27
2023-05-21T14:06:59.166Z,28.30
2023-05-21T14:09:27.230Z,28.26
2023-05-21T14:11:55.123Z,28.11
2023-05-21T14:14:24.365Z,28.04
2023-05-21T14:16:52.669Z,27.88
2023-05-21T14:19:20.440Z,27.73
2023-05-21T14:21:48.044Z,27.72
2023-05-21T14:24:15.694Z,27.55
2023-05-21T14:26:43.270Z,27.58
2023-05-21T14:29:10.988Z,27.52
2023-05-21T14:31:40.173Z,27.54
2023-05-21T14:34:08.789Z,27.39
2023-05-21T14:36:36.359Z,27.33
2023-05-21T14:39:04.261Z,27.33
2023-05-21T14:41:31.945Z,27.16
2023-05-21T14:43:59.533Z,27.15
2023-05-21T14:46:27.128Z,27.08
2023-05-21T14:48:59.417Z,27.17
2023-05-21T14:51:27.089Z,26.92
2023-05-21T14:53:55.734Z,27.00
2023-05-21T14:56:26.196Z,27.13
2023-05-21T14:58:53.761Z,27.08
2023-05-21T15:01:21.565Z,27.02
2023-05-21T15:03:49.402Z,26.89
2023-05-21T15:06:18.459Z,26.98
2023-05-21T15:08:46.019Z,27.01
2023-05-21T15:11:13.631Z,26.93
2023-05-21T15:13:41.226Z,26.93
2023-05-21T15:16:08.858Z,26.88
2023-05-21T15:18:36.390Z,26.78
2023-05-21T15:21:03.989Z,26.77
2023-05-21T15:23:32.841Z,26.81
2023-05-21T15:26:00.411Z,26.85
2023-05-21T15:28:29.224Z,26.64
2023-05-21T15:30:56.860Z,26.69
2023-05-21T15:33:24.615Z,26.68
2023-05-21T15:35:52.227Z,26.70
2023-05-21T15:38:19.810Z,26.64
2023-05-21T15:40:48.748Z,26.59
2023-05-21T15:43:16.302Z,26.54
2023-05-21T15:45:43.863Z,26.45
2023-05-21T15:48:12.397Z,26.56
2023-05-21T15:50:40.421Z,26.58
2023-05-21T15:53:08.011Z,26.50
2023-05-21T15:55:35.831Z,26.47
2023-05-21T15:58:05.235Z,26.46
2023-05-21T16:00:32.857Z,26.40
2023-05-21T16:03:00.412Z,26.47
2023-05-21T16:05:28.057Z,26.42
2023-05-21T16:07:55.623Z,26.36
2023-05-21T16:10:23.676Z,26.38
2023-05-21T16:12:51.246Z,26.35
2023-05-21T16:15:20.100Z,26.27
2023-05-21T16:17:48.043Z,26.29
2023-05-21T16:20:16.129Z,26.26
2023-05-21T16:22:43.760Z,26.29
2023-05-21T16:25:11.263Z,26.36
2023-05-21T16:27:38.836Z,26.26
2023-05-21T16:30:07.688Z,26.29
2023-05-21T16:32:36.712Z,26.25
2023-05-21T16:35:04.914Z,26.24
2023-05-21T16:37:32.508Z,26.20
2023-05-21T16:40:00.063Z,26.09
2023-05-21T16:42:27.667Z,26.09
2023-05-21T16:44:55.214Z,26.05
2023-05-21T16:47:22.820Z,25.92
2023-05-21T16:49:52.546Z,25.96
2023-05-21T16:52:20.084Z,25.94
2023-05-21T16:54:48.896Z,25.85
2023-05-21T16:57:16.798Z,25.87
2023-05-21T16:59:44.608Z,25.74
2023-05-21T17:02:13.136Z,25.76
2023-05-21T17:04:40.697Z,25.72
2023-05-21T17:07:09.530Z,25.66
2023-05-21T17:09:37.099Z,25.57
2023-05-21T17:12:05.265Z,25.58
2023-05-21T17:14:34.889Z,25.53
2023-05-21T17:17:03.390Z,25.49
2023-05-21T17:19:31.132Z,25.45
2023-05-21T17:21:58.941Z,25.37
2023-05-21T17:24:27.824Z,25.30
2023-05-21T17:26:55.639Z,25.21
2023-05-21T17:29:23.219Z,25.13
2023-05-21T17:31:51.000Z,25.14
2023-05-21T17:34:18.978Z,25.11
2023-05-21T17:36:46.523Z,25.02
2023-05-21T17:39:14.093Z,25.04
2023-05-21T17:41:42.974Z,24.99
2023-05-21T17:44:12.727Z,24.91
2023-05-21T17:46:40.477Z,24.84
2023-05-21T17:49:08.570Z,24.81
2023-05-21T17:51:36.930Z,24.76
2023-05-21T17:54:04.754Z,24.70
2023-05-21T17:56:34.286Z,24.65
2023-05-21T17:59:03.145Z,24.59
2023-05-21T18:01:30.885Z,24.54
2023-05-21T18:03:58.550Z,24.52
2023-05-21T18:06:27.798Z,24.43
2023-05-21T18:08:55.694Z,24.38
2023-05-21T18:11:24.172Z,24.38
2023-05-21T18:13:51.815Z,24.28
2023-05-21T18:16:20.854Z,24.22
2023-05-21T18:18:48.487Z,24.19
2023-05-21T18:21:16.141Z,24.11
2023-05-21T18:23:44.485Z,24.08
2023-05-21T18:26:12.613Z,23.97
2023-05-21T18:28:40.663Z,23.98
2023-05-21T18:31:08.234Z,23.94
2023-05-21T18:33:38.352Z,23.96
2023-05-21T18:36:06.365Z,23.92
2023-05-21T18:38:36.557Z,23.88
2023-05-21T18:41:05.050Z,23.88
2023-05-21T18:43:32.661Z,23.81
2023-05-21T18:46:00.615Z,23.76
2023-05-21T18:48:28.187Z,23.69
2023-05-21T18:50:57.081Z,23.63
2023-05-21T18:53:24.631Z,23.48
2023-05-21T18:55:52.210Z,23.42
2023-05-21T18:58:19.900Z,23.31
2023-05-21T19:00:47.404Z,23.26
2023-05-21T19:03:17.238Z,23.23
2023-05-21T19:05:45.195Z,23.23
2023-05-21T19:08:15.943Z,23.17
2023-05-21T19:10:43.732Z,23.08
2023-05-21T19:13:11.421Z,22.96
2023-05-21T19:15:39.818Z,22.97
2023-05-21T19:18:08.203Z,22.88
2023-05-21T19:20:36.749Z,22.87
2023-05-21T19:23:04.866Z,22.82
2023-05-21T19:25:33.861Z,22.77
2023-05-21T19:28:01.688Z,22.76
2023-05-21T19:30:29.275Z,22.72
2023-05-21T19:32:56.829Z,22.66
2023-05-21T19:35:24.463Z,22.65
2023-05-21T19:37:54.445Z,22.61
2023-05-21T19:40:23.124Z,22.51
2023-05-21T19:42:52.040Z,22.49
2023-05-21T19:45:21.310Z,22.39
2023-05-21T19:47:49.113Z,22.39
2023-05-21T19:50:17.933Z,22.36
2023-05-21T19:52:45.594Z,22.32
2023-05-21T19:55:14.006Z,22.26
2023-05-21T19:57:42.760Z,22.24
2023-05-21T20:00:13.833Z,22.19
2023-05-21T20:02:41.700Z,22.18
2023-05-21T20:05:10.427Z,22.16
2023-05-21T20:07:38.036Z,22.10
2023-05-21T20:10:06.376Z,22.07
2023-05-21T20:12:34.032Z,22.06
2023-05-21T20:15:01.706Z,22.00
2023-05-21T20:17:33.857Z,21.94
2023-05-21T20:20:07.401Z,21.86
2023-05-21T20:22:34.965Z,21.85
2023-05-21T20:25:03.863Z,21.85
2023-05-21T20:27:32.040Z,21.81
2023-05-21T20:29:59.634Z,21.81
2023-05-21T20:32:27.298Z,21.81
2023-05-21T20:35:03.412Z,21.71
2023-05-21T20:37:33.839Z,21.70
2023-05-21T20:40:01.464Z,21.71
2023-05-21T20:42:33.963Z,21.68
2023-05-21T20:45:01.820Z,21.66
2023-05-21T20:47:30.290Z,21.61
2023-05-21T20:50:00.473Z,21.55
2023-05-21T20:52:28.080Z,21.49
2023-05-21T20:54:56.550Z,21.41
2023-05-21T20:57:26.185Z,21.35
2023-05-21T20:59:53.884Z,21.37
2023-05-21T21:02:22.833Z,21.38
2023-05-21T21:04:51.242Z,21.34
2023-05-21T21:07:20.575Z,21.33
2023-05-21T21:09:49.442Z,21.27
2023-05-21T21:14:47.459Z,21.18
2023-05-21T21:17:14.989Z,20.98
2023-05-21T21:19:42.601Z,20.74
2023-05-21T21:22:10.193Z,20.52
2023-05-21T21:24:39.083Z,20.39
2023-05-21T21:27:06.937Z,19.96
2023-05-21T21:29:34.504Z,19.72
2023-05-21T21:32:02.345Z,19.60
2023-05-21T21:34:29.938Z,19.55
2023-05-21T21:36:57.487Z,19.34
2023-05-21T21:39:26.180Z,19.35
2023-05-21T21:41:55.090Z,19.46
2023-05-21T21:44:22.669Z,19.49
2023-05-21T21:46:50.191Z,19.59
2023-05-21T21:49:18.103Z,19.64
2023-05-21T21:51:45.674Z,19.73
2023-05-21T21:54:13.707Z,19.70
2023-05-21T21:56:41.355Z,19.63
2023-05-21T21:59:10.372Z,19.73
2023-05-21T22:01:38.024Z,19.52
2023-05-21T22:04:06.214Z,19.27
2023-05-21T22:06:33.956Z,19.25
2023-05-21T22:09:02.650Z,19.15
2023-05-21T22:11:30.383Z,19.02
2023-05-21T22:14:00.328Z,19.03
2023-05-21T22:16:29.278Z,19.06
2023-05-21T22:18:58.105Z,19.00
2023-05-21T22:21:27.232Z,18.70
2023-05-21T22:23:54.926Z,18.66
2023-05-21T22:26:23.005Z,18.68
2023-05-21T22:28:50.594Z,18.63
2023-05-21T22:31:18.181Z,18.58
2023-05-21T22:33:47.310Z,18.43
2023-05-21T22:36:14.863Z,18.19
2023-05-21T22:38:43.457Z,18.06
2023-05-21T22:41:11.274Z,18.10
2023-05-21T22:43:38.894Z,18.03
2023-05-21T22:46:06.593Z,18.12
2023-05-21T22:48:34.523Z,18.00
2023-05-21T22:51:04.546Z,17.75
2023-05-21T22:53:32.471Z,17.86
2023-05-21T22:56:01.118Z,17.83
2023-05-21T22:58:28.667Z,17.84
2023-05-21T23:00:56.186Z,17.75
2023-05-21T23:03:23.795Z,17.56
2023-05-21T23:05:51.417Z,17.67
2023-05-21T23:08:20.448Z,17.79
2023-05-21T23:10:48.138Z,17.69
2023-05-21T23:13:15.702Z,17.86
2023-05-21T23:15:43.547Z,17.81
2023-05-21T23:18:11.480Z,17.87
2023-05-21T23:20:40.982Z,17.74
2023-05-21T23:23:09.068Z,17.66
2023-05-21T23:25:38.014Z,17.70
2023-05-21T23:28:05.812Z,17.55
2023-05-21T23:30:33.362Z,17.35
2023-05-21T23:33:01.179Z,17.31
2023-05-21T23:35:28.789Z,17.46
2023-05-21T23:37:56.548Z,17.19
2023-05-21T23:40:24.124Z,17.21
2023-05-21T23:42:52.971Z,16.78
2023-05-21T23:45:20.685Z,16.93
2023-05-21T23:47:48.295Z,16.88
2023-05-21T23:50:15.969Z,16.59
2023-05-21T23:52:43.582Z,16.63
2023-05-21T23:55:14.532Z,16.78
2023-05-21T23:57:42.076Z,16.82
